DLH8UX EDDK-EDDM
Flight info
| Callsign | DLH8UX |
|---|---|
| Flight time | 1h 5m |
| Altitude | 33000 |
| Route | KUMIK1R KUMIK Y854 BOMBI T104 ROKIL ROKIL1B |
| Aircraft | A320/M-SDE2E3FGIJ1LORWXYZ/HB1 |
Departure
| Time | 2026-05-06 18:19 |
|---|---|
| Airport | Cologne Bonn Airport (EDDK) |
Arrival
| Time | 2026-05-06 19:24 |
|---|---|
| Airport | Munich Airport (EDDM) |
| Time | Latitude | Longitude | Altitude | Speed | Heading |
|---|---|---|---|---|---|
| 2026-05-06 17:35 | 50.88150 | 7.11996 | 232 ft | 0 kts | 215° |
| 2026-05-06 18:04 | 50.88154 | 7.12001 | 232 ft | 4 kts | 216° |
| 2026-05-06 18:04 | 50.88175 | 7.12028 | 232 ft | 4 kts | 217° |
| 2026-05-06 18:05 | 50.88193 | 7.12045 | 236 ft | 4 kts | 177° |
| 2026-05-06 18:05 | 50.88211 | 7.12027 | 234 ft | 4 kts | 126° |
| 2026-05-06 18:05 | 50.88221 | 7.12005 | 233 ft | 0 kts | 126° |
| 2026-05-06 18:09 | 50.88217 | 7.12014 | 233 ft | 3 kts | 126° |
| 2026-05-06 18:09 | 50.88201 | 7.12048 | 232 ft | 5 kts | 126° |
| 2026-05-06 18:09 | 50.88165 | 7.12127 | 232 ft | 9 kts | 126° |
| 2026-05-06 18:09 | 50.88128 | 7.12207 | 234 ft | 10 kts | 126° |
| 2026-05-06 18:10 | 50.88099 | 7.12300 | 232 ft | 10 kts | 98° |
| 2026-05-06 18:10 | 50.88054 | 7.12414 | 232 ft | 13 kts | 133° |
| 2026-05-06 18:10 | 50.87989 | 7.12510 | 232 ft | 16 kts | 137° |
| 2026-05-06 18:10 | 50.87909 | 7.12609 | 232 ft | 13 kts | 163° |
| 2026-05-06 18:11 | 50.87811 | 7.12638 | 232 ft | 19 kts | 146° |
| 2026-05-06 18:11 | 50.87710 | 7.12784 | 232 ft | 18 kts | 137° |
| 2026-05-06 18:11 | 50.87622 | 7.12912 | 232 ft | 16 kts | 138° |
| 2026-05-06 18:11 | 50.87542 | 7.13028 | 232 ft | 15 kts | 137° |
| 2026-05-06 18:12 | 50.87468 | 7.13135 | 232 ft | 16 kts | 137° |
| 2026-05-06 18:12 | 50.87380 | 7.13262 | 232 ft | 17 kts | 137° |
| 2026-05-06 18:12 | 50.87298 | 7.13380 | 232 ft | 15 kts | 138° |
| 2026-05-06 18:12 | 50.87223 | 7.13488 | 238 ft | 17 kts | 137° |
| 2026-05-06 18:13 | 50.87146 | 7.13602 | 238 ft | 15 kts | 136° |
| 2026-05-06 18:13 | 50.87053 | 7.13732 | 242 ft | 17 kts | 137° |
| 2026-05-06 18:13 | 50.86972 | 7.13854 | 245 ft | 18 kts | 137° |
| 2026-05-06 18:13 | 50.86885 | 7.13978 | 254 ft | 14 kts | 137° |
| 2026-05-06 18:14 | 50.86805 | 7.14094 | 255 ft | 17 kts | 137° |
| 2026-05-06 18:14 | 50.86715 | 7.14163 | 257 ft | 12 kts | 139° |
| 2026-05-06 18:14 | 50.86651 | 7.14256 | 261 ft | 13 kts | 137° |
| 2026-05-06 18:14 | 50.86554 | 7.14397 | 262 ft | 21 kts | 137° |
| 2026-05-06 18:15 | 50.86459 | 7.14536 | 269 ft | 20 kts | 137° |
| 2026-05-06 18:15 | 50.86364 | 7.14674 | 274 ft | 16 kts | 137° |
| 2026-05-06 18:15 | 50.86272 | 7.14808 | 279 ft | 23 kts | 137° |
| 2026-05-06 18:15 | 50.86153 | 7.14979 | 285 ft | 22 kts | 137° |
| 2026-05-06 18:16 | 50.86056 | 7.15133 | 292 ft | 18 kts | 118° |
| 2026-05-06 18:16 | 50.86067 | 7.15302 | 294 ft | 16 kts | 52° |
| 2026-05-06 18:16 | 50.86170 | 7.15353 | 289 ft | 15 kts | 349° |
| 2026-05-06 18:16 | 50.86264 | 7.15324 | 288 ft | 15 kts | 349° |
| 2026-05-06 18:17 | 50.86381 | 7.15287 | 285 ft | 19 kts | 349° |
| 2026-05-06 18:17 | 50.86453 | 7.15218 | 282 ft | 0 kts | 317° |
| 2026-05-06 18:18 | 50.86568 | 7.15052 | 277 ft | 60 kts | 317° |
| 2026-05-06 18:18 | 50.87054 | 7.14349 | 253 ft | 126 kts | 317° |
| 2026-05-06 18:18 | 50.87806 | 7.13260 | 508 ft | 153 kts | 318° |
| 2026-05-06 18:19 | 50.88590 | 7.12133 | 1313 ft | 152 kts | 318° |
| 2026-05-06 18:19 | 50.89537 | 7.11239 | 1725 ft | 174 kts | 354° |
| 2026-05-06 18:19 | 50.90743 | 7.11712 | 2200 ft | 191 kts | 34° |
| 2026-05-06 18:19 | 50.91873 | 7.12974 | 2673 ft | 204 kts | 28° |
| 2026-05-06 18:20 | 50.93103 | 7.14128 | 3303 ft | 210 kts | 37° |
| 2026-05-06 18:20 | 50.94073 | 7.15996 | 3772 ft | 234 kts | 56° |
| 2026-05-06 18:20 | 50.94920 | 7.18347 | 4315 ft | 255 kts | 59° |
| 2026-05-06 18:20 | 50.95751 | 7.20878 | 5156 ft | 262 kts | 61° |
| 2026-05-06 18:21 | 50.96569 | 7.23507 | 6065 ft | 268 kts | 62° |
| 2026-05-06 18:21 | 50.97371 | 7.26202 | 6945 ft | 272 kts | 64° |
| 2026-05-06 18:21 | 50.98186 | 7.28937 | 7787 ft | 277 kts | 62° |
| 2026-05-06 18:21 | 50.99050 | 7.31684 | 8696 ft | 279 kts | 61° |
| 2026-05-06 18:22 | 50.99943 | 7.34435 | 9654 ft | 281 kts | 60° |
| 2026-05-06 18:22 | 51.00808 | 7.37256 | 10333 ft | 293 kts | 66° |
| 2026-05-06 18:22 | 51.01351 | 7.40491 | 10737 ft | 315 kts | 80° |
| 2026-05-06 18:22 | 51.01393 | 7.44059 | 11157 ft | 334 kts | 95° |
| 2026-05-06 18:23 | 51.00700 | 7.47685 | 11560 ft | 353 kts | 117° |
| 2026-05-06 18:23 | 50.99196 | 7.50813 | 12213 ft | 360 kts | 132° |
| 2026-05-06 18:23 | 50.97491 | 7.53760 | 12943 ft | 365 kts | 133° |
| 2026-05-06 18:23 | 50.95772 | 7.56680 | 13687 ft | 368 kts | 135° |
| 2026-05-06 18:24 | 50.94013 | 7.59641 | 14435 ft | 370 kts | 135° |
| 2026-05-06 18:24 | 50.92211 | 7.62569 | 15125 ft | 373 kts | 137° |
| 2026-05-06 18:24 | 50.90331 | 7.65444 | 15796 ft | 376 kts | 139° |
| 2026-05-06 18:24 | 50.88413 | 7.68277 | 16434 ft | 380 kts | 139° |
| 2026-05-06 18:25 | 50.86459 | 7.71130 | 17077 ft | 384 kts | 139° |
| 2026-05-06 18:25 | 50.84486 | 7.74006 | 17696 ft | 388 kts | 139° |
| 2026-05-06 18:25 | 50.82497 | 7.76919 | 18286 ft | 391 kts | 139° |
| 2026-05-06 18:25 | 50.80499 | 7.79869 | 18831 ft | 395 kts | 139° |
| 2026-05-06 18:26 | 50.78488 | 7.82848 | 19382 ft | 397 kts | 139° |
| 2026-05-06 18:26 | 50.76469 | 7.85845 | 19928 ft | 399 kts | 139° |
| 2026-05-06 18:26 | 50.74440 | 7.88859 | 20475 ft | 402 kts | 139° |
| 2026-05-06 18:26 | 50.72399 | 7.91888 | 21012 ft | 404 kts | 139° |
| 2026-05-06 18:27 | 50.70341 | 7.94937 | 21542 ft | 407 kts | 139° |
| 2026-05-06 18:27 | 50.68270 | 7.98008 | 22065 ft | 409 kts | 139° |
| 2026-05-06 18:27 | 50.66188 | 8.01088 | 22578 ft | 412 kts | 139° |
| 2026-05-06 18:27 | 50.64091 | 8.04179 | 23099 ft | 415 kts | 139° |
| 2026-05-06 18:28 | 50.61975 | 8.07288 | 23574 ft | 417 kts | 139° |
| 2026-05-06 18:28 | 50.59845 | 8.10414 | 23995 ft | 420 kts | 139° |
| 2026-05-06 18:28 | 50.57706 | 8.13550 | 24430 ft | 421 kts | 139° |
| 2026-05-06 18:28 | 50.55563 | 8.16691 | 24863 ft | 422 kts | 139° |
| 2026-05-06 18:29 | 50.53411 | 8.19847 | 25278 ft | 424 kts | 139° |
| 2026-05-06 18:29 | 50.51251 | 8.23006 | 25697 ft | 425 kts | 139° |
| 2026-05-06 18:29 | 50.49081 | 8.26175 | 26114 ft | 426 kts | 139° |
| 2026-05-06 18:29 | 50.46934 | 8.29310 | 26534 ft | 428 kts | 140° |
| 2026-05-06 18:30 | 50.44751 | 8.32487 | 26952 ft | 429 kts | 140° |
| 2026-05-06 18:30 | 50.42556 | 8.35676 | 27337 ft | 431 kts | 140° |
| 2026-05-06 18:30 | 50.40354 | 8.38874 | 27747 ft | 432 kts | 140° |
| 2026-05-06 18:30 | 50.38147 | 8.42076 | 28141 ft | 433 kts | 140° |
| 2026-05-06 18:31 | 50.35902 | 8.45327 | 28502 ft | 435 kts | 140° |
| 2026-05-06 18:31 | 50.33707 | 8.48500 | 28859 ft | 436 kts | 139° |
| 2026-05-06 18:31 | 50.31475 | 8.51718 | 29243 ft | 436 kts | 139° |
| 2026-05-06 18:31 | 50.29239 | 8.54937 | 29623 ft | 437 kts | 139° |
| 2026-05-06 18:32 | 50.26999 | 8.58160 | 29949 ft | 439 kts | 139° |
| 2026-05-06 18:32 | 50.24748 | 8.61397 | 30216 ft | 440 kts | 139° |
| 2026-05-06 18:32 | 50.22492 | 8.64641 | 30543 ft | 441 kts | 140° |
| 2026-05-06 18:32 | 50.20239 | 8.67877 | 30917 ft | 440 kts | 140° |
| 2026-05-06 18:33 | 50.17988 | 8.71109 | 31288 ft | 439 kts | 140° |
| 2026-05-06 18:33 | 50.15742 | 8.74327 | 31648 ft | 439 kts | 140° |
| 2026-05-06 18:33 | 50.13493 | 8.77541 | 32002 ft | 438 kts | 140° |
| 2026-05-06 18:33 | 50.11247 | 8.80745 | 32356 ft | 438 kts | 141° |
| 2026-05-06 18:34 | 50.08995 | 8.83948 | 32647 ft | 438 kts | 141° |
| 2026-05-06 18:34 | 50.06751 | 8.87135 | 32802 ft | 436 kts | 141° |
| 2026-05-06 18:34 | 50.03049 | 8.92388 | 32830 ft | 431 kts | 141° |
| 2026-05-06 18:35 | 49.98622 | 8.98659 | 32827 ft | 430 kts | 141° |
| 2026-05-06 18:35 | 49.94199 | 9.04909 | 32824 ft | 430 kts | 141° |
| 2026-05-06 18:36 | 49.89776 | 9.11160 | 32803 ft | 429 kts | 141° |
| 2026-05-06 18:36 | 49.85377 | 9.17354 | 32821 ft | 426 kts | 142° |
| 2026-05-06 18:37 | 49.80981 | 9.23506 | 32824 ft | 425 kts | 141° |
| 2026-05-06 18:37 | 49.76593 | 9.29638 | 32828 ft | 425 kts | 141° |
| 2026-05-06 18:38 | 49.72208 | 9.35755 | 32824 ft | 424 kts | 141° |
| 2026-05-06 18:38 | 49.67827 | 9.41856 | 32821 ft | 424 kts | 141° |
| 2026-05-06 18:39 | 49.63445 | 9.47951 | 32825 ft | 424 kts | 141° |
| 2026-05-06 18:40 | 49.56859 | 9.57058 | 32800 ft | 424 kts | 142° |
| 2026-05-06 18:40 | 49.52463 | 9.63120 | 32800 ft | 425 kts | 142° |
| 2026-05-06 18:41 | 49.48063 | 9.69182 | 32798 ft | 425 kts | 142° |
| 2026-05-06 18:41 | 49.43656 | 9.75241 | 32570 ft | 425 kts | 142° |
| 2026-05-06 18:41 | 49.41452 | 9.78262 | 32302 ft | 425 kts | 142° |
| 2026-05-06 18:42 | 49.39243 | 9.81283 | 32038 ft | 425 kts | 141° |
| 2026-05-06 18:42 | 49.37164 | 9.84538 | 31739 ft | 428 kts | 135° |
| 2026-05-06 18:42 | 49.35185 | 9.87958 | 30974 ft | 431 kts | 135° |
| 2026-05-06 18:42 | 49.33175 | 9.91428 | 29916 ft | 437 kts | 135° |
| 2026-05-06 18:43 | 49.31168 | 9.94891 | 29275 ft | 431 kts | 135° |
| 2026-05-06 18:43 | 49.29191 | 9.98303 | 28605 ft | 425 kts | 135° |
| 2026-05-06 18:43 | 49.27239 | 10.01663 | 27978 ft | 420 kts | 135° |
| 2026-05-06 18:43 | 49.25310 | 10.04979 | 27407 ft | 414 kts | 135° |
| 2026-05-06 18:44 | 49.23404 | 10.08243 | 26811 ft | 409 kts | 135° |
| 2026-05-06 18:44 | 49.21513 | 10.11468 | 26212 ft | 405 kts | 135° |
| 2026-05-06 18:44 | 49.19643 | 10.14655 | 25623 ft | 401 kts | 135° |
| 2026-05-06 18:44 | 49.17786 | 10.17821 | 25026 ft | 398 kts | 134° |
| 2026-05-06 18:45 | 49.15950 | 10.20952 | 24447 ft | 394 kts | 134° |
| 2026-05-06 18:45 | 49.14131 | 10.24062 | 23892 ft | 389 kts | 135° |
| 2026-05-06 18:45 | 49.12318 | 10.27097 | 23393 ft | 384 kts | 136° |
| 2026-05-06 18:45 | 49.10499 | 10.30054 | 22775 ft | 380 kts | 137° |
| 2026-05-06 18:46 | 49.08677 | 10.32962 | 22140 ft | 378 kts | 137° |
| 2026-05-06 18:46 | 49.06860 | 10.35842 | 21533 ft | 376 kts | 137° |
| 2026-05-06 18:46 | 49.05054 | 10.38701 | 20961 ft | 374 kts | 137° |
| 2026-05-06 18:46 | 49.03280 | 10.41515 | 20580 ft | 373 kts | 137° |
| 2026-05-06 18:47 | 49.01486 | 10.44375 | 20206 ft | 372 kts | 136° |
| 2026-05-06 18:47 | 48.99707 | 10.47222 | 19832 ft | 371 kts | 136° |
| 2026-05-06 18:47 | 48.97927 | 10.50069 | 19466 ft | 370 kts | 136° |
| 2026-05-06 18:47 | 48.96156 | 10.52901 | 19097 ft | 369 kts | 136° |
| 2026-05-06 18:48 | 48.94387 | 10.55724 | 18736 ft | 368 kts | 136° |
| 2026-05-06 18:48 | 48.92620 | 10.58539 | 18360 ft | 368 kts | 136° |
| 2026-05-06 18:48 | 48.90849 | 10.61357 | 17984 ft | 369 kts | 137° |
| 2026-05-06 18:48 | 48.89074 | 10.64176 | 17579 ft | 369 kts | 137° |
| 2026-05-06 18:49 | 48.87307 | 10.66980 | 17182 ft | 367 kts | 137° |
| 2026-05-06 18:49 | 48.85543 | 10.69773 | 16886 ft | 365 kts | 136° |
| 2026-05-06 18:49 | 48.83894 | 10.72712 | 16865 ft | 367 kts | 132° |
| 2026-05-06 18:49 | 48.82308 | 10.75760 | 16869 ft | 368 kts | 131° |
| 2026-05-06 18:50 | 48.80747 | 10.78833 | 16864 ft | 368 kts | 130° |
| 2026-05-06 18:50 | 48.79192 | 10.81920 | 16860 ft | 367 kts | 130° |
| 2026-05-06 18:50 | 48.77645 | 10.84987 | 16860 ft | 365 kts | 131° |
| 2026-05-06 18:50 | 48.76098 | 10.88036 | 16853 ft | 365 kts | 131° |
| 2026-05-06 18:51 | 48.74545 | 10.91075 | 16849 ft | 365 kts | 131° |
| 2026-05-06 18:51 | 48.72992 | 10.94107 | 16851 ft | 364 kts | 131° |
| 2026-05-06 18:51 | 48.71435 | 10.97139 | 16832 ft | 364 kts | 131° |
| 2026-05-06 18:51 | 48.69891 | 11.00144 | 16382 ft | 361 kts | 131° |
| 2026-05-06 18:52 | 48.68352 | 11.03133 | 15853 ft | 359 kts | 131° |
| 2026-05-06 18:52 | 48.66816 | 11.06110 | 15323 ft | 358 kts | 131° |
| 2026-05-06 18:52 | 48.65283 | 11.09073 | 14827 ft | 357 kts | 132° |
| 2026-05-06 18:52 | 48.63754 | 11.12026 | 14321 ft | 356 kts | 132° |
| 2026-05-06 18:53 | 48.62229 | 11.14971 | 13826 ft | 355 kts | 132° |
| 2026-05-06 18:53 | 48.60711 | 11.17907 | 13302 ft | 354 kts | 132° |
| 2026-05-06 18:53 | 48.59201 | 11.20827 | 12773 ft | 352 kts | 132° |
| 2026-05-06 18:53 | 48.57700 | 11.23727 | 12265 ft | 350 kts | 132° |
| 2026-05-06 18:54 | 48.56206 | 11.26607 | 11767 ft | 347 kts | 132° |
| 2026-05-06 18:54 | 48.54720 | 11.29466 | 11282 ft | 344 kts | 132° |
| 2026-05-06 18:54 | 48.53272 | 11.32259 | 11135 ft | 332 kts | 133° |
| 2026-05-06 18:54 | 48.51879 | 11.34949 | 11003 ft | 320 kts | 133° |
| 2026-05-06 18:55 | 48.50530 | 11.37543 | 10866 ft | 309 kts | 133° |
| 2026-05-06 18:55 | 48.49223 | 11.40048 | 10850 ft | 300 kts | 134° |
| 2026-05-06 18:55 | 48.47937 | 11.42503 | 10664 ft | 297 kts | 134° |
| 2026-05-06 18:55 | 48.46657 | 11.44941 | 10320 ft | 296 kts | 134° |
| 2026-05-06 18:56 | 48.45434 | 11.47434 | 9973 ft | 298 kts | 127° |
| 2026-05-06 18:56 | 48.44464 | 11.50203 | 9625 ft | 300 kts | 117° |
| 2026-05-06 18:56 | 48.43802 | 11.53198 | 9244 ft | 303 kts | 107° |
| 2026-05-06 18:56 | 48.43474 | 11.56349 | 8839 ft | 306 kts | 96° |
| 2026-05-06 18:57 | 48.43490 | 11.59549 | 8438 ft | 307 kts | 86° |
| 2026-05-06 18:57 | 48.43739 | 11.62737 | 8053 ft | 306 kts | 84° |
| 2026-05-06 18:57 | 48.43989 | 11.65918 | 7644 ft | 305 kts | 84° |
| 2026-05-06 18:57 | 48.44234 | 11.69083 | 7263 ft | 304 kts | 84° |
| 2026-05-06 18:58 | 48.44475 | 11.72203 | 6870 ft | 302 kts | 83° |
| 2026-05-06 18:58 | 48.44717 | 11.75350 | 6479 ft | 302 kts | 83° |
| 2026-05-06 18:58 | 48.44956 | 11.78482 | 6204 ft | 301 kts | 83° |
| 2026-05-06 18:58 | 48.45195 | 11.81622 | 6030 ft | 302 kts | 83° |
| 2026-05-06 18:59 | 48.45434 | 11.84767 | 6001 ft | 303 kts | 83° |
| 2026-05-06 18:59 | 48.45669 | 11.87872 | 5976 ft | 289 kts | 83° |
| 2026-05-06 18:59 | 48.45887 | 11.90777 | 5742 ft | 272 kts | 83° |
| 2026-05-06 18:59 | 48.46098 | 11.93576 | 5253 ft | 269 kts | 82° |
| 2026-05-06 19:00 | 48.46308 | 11.96367 | 4750 ft | 266 kts | 82° |
| 2026-05-06 19:00 | 48.46515 | 11.99116 | 4378 ft | 259 kts | 82° |
| 2026-05-06 19:00 | 48.46712 | 12.01759 | 4014 ft | 256 kts | 82° |
| 2026-05-06 19:00 | 48.46844 | 12.03526 | 3975 ft | 258 kts | 81° |
| 2026-05-06 19:01 | 48.47120 | 12.07175 | 4006 ft | 263 kts | 81° |
| 2026-05-06 19:01 | 48.47132 | 12.09878 | 4010 ft | 265 kts | 104° |
| 2026-05-06 19:01 | 48.46349 | 12.12322 | 3999 ft | 258 kts | 136° |
| 2026-05-06 19:01 | 48.44927 | 12.13819 | 4007 ft | 245 kts | 167° |
| 2026-05-06 19:02 | 48.43301 | 12.14509 | 3994 ft | 241 kts | 177° |
| 2026-05-06 19:02 | 48.41730 | 12.14378 | 3991 ft | 213 kts | 209° |
| 2026-05-06 19:02 | 48.40608 | 12.13209 | 4002 ft | 186 kts | 231° |
| 2026-05-06 19:02 | 48.39749 | 12.11867 | 4021 ft | 170 kts | 234° |
| 2026-05-06 19:03 | 48.39022 | 12.10548 | 4019 ft | 158 kts | 245° |
| 2026-05-06 19:03 | 48.38700 | 12.09026 | 4013 ft | 151 kts | 265° |
| 2026-05-06 19:03 | 48.38586 | 12.07463 | 4008 ft | 150 kts | 265° |
| 2026-05-06 19:03 | 48.38472 | 12.05905 | 4009 ft | 150 kts | 265° |
| 2026-05-06 19:04 | 48.38356 | 12.04347 | 4006 ft | 150 kts | 266° |
| 2026-05-06 19:04 | 48.38241 | 12.02784 | 4004 ft | 150 kts | 266° |
| 2026-05-06 19:04 | 48.38125 | 12.01229 | 3936 ft | 148 kts | 265° |
| 2026-05-06 19:04 | 48.38013 | 11.99733 | 3792 ft | 141 kts | 266° |
| 2026-05-06 19:05 | 48.37905 | 11.98284 | 3619 ft | 138 kts | 266° |
| 2026-05-06 19:05 | 48.37798 | 11.96853 | 3455 ft | 137 kts | 265° |
| 2026-05-06 19:05 | 48.37693 | 11.95434 | 3272 ft | 137 kts | 265° |
| 2026-05-06 19:05 | 48.37596 | 11.94016 | 3086 ft | 136 kts | 265° |
| 2026-05-06 19:06 | 48.37493 | 11.92611 | 2895 ft | 136 kts | 264° |
| 2026-05-06 19:06 | 48.37370 | 11.91185 | 2709 ft | 139 kts | 264° |
| 2026-05-06 19:06 | 48.37270 | 11.89739 | 2494 ft | 139 kts | 265° |
| 2026-05-06 19:06 | 48.37171 | 11.88299 | 2338 ft | 140 kts | 263° |
| 2026-05-06 19:07 | 48.37057 | 11.86824 | 2144 ft | 140 kts | 262° |
| 2026-05-06 19:07 | 48.36978 | 11.85859 | 2007 ft | 140 kts | 262° |
| 2026-05-06 19:07 | 48.36823 | 11.83908 | 1712 ft | 147 kts | 264° |
| 2026-05-06 19:07 | 48.36709 | 11.82401 | 1573 ft | 141 kts | 263° |
| 2026-05-06 19:08 | 48.36603 | 11.80984 | 1491 ft | 131 kts | 264° |
| 2026-05-06 19:08 | 48.36489 | 11.79469 | 2060 ft | 154 kts | 264° |
| 2026-05-06 19:08 | 48.36373 | 11.77876 | 3033 ft | 155 kts | 264° |
| 2026-05-06 19:08 | 48.36225 | 11.76155 | 3348 ft | 179 kts | 264° |
| 2026-05-06 19:09 | 48.36222 | 11.74184 | 3844 ft | 198 kts | 281° |
| 2026-05-06 19:09 | 48.36821 | 11.72336 | 4655 ft | 202 kts | 308° |
| 2026-05-06 19:09 | 48.38010 | 11.71184 | 4920 ft | 209 kts | 332° |
| 2026-05-06 19:09 | 48.39363 | 11.70381 | 4991 ft | 209 kts | 332° |
| 2026-05-06 19:10 | 48.40717 | 11.69582 | 4999 ft | 209 kts | 332° |
| 2026-05-06 19:10 | 48.42074 | 11.68778 | 5006 ft | 210 kts | 332° |
| 2026-05-06 19:10 | 48.43432 | 11.67966 | 5007 ft | 210 kts | 332° |
| 2026-05-06 19:10 | 48.44778 | 11.67188 | 5004 ft | 212 kts | 338° |
| 2026-05-06 19:11 | 48.46297 | 11.67211 | 5004 ft | 227 kts | 12° |
| 2026-05-06 19:11 | 48.47634 | 11.68567 | 5004 ft | 242 kts | 47° |
| 2026-05-06 19:11 | 48.48342 | 11.70840 | 5014 ft | 247 kts | 77° |
| 2026-05-06 19:11 | 48.48581 | 11.73406 | 5014 ft | 246 kts | 83° |
| 2026-05-06 19:12 | 48.48734 | 11.76005 | 5005 ft | 252 kts | 84° |
| 2026-05-06 19:12 | 48.48876 | 11.78650 | 5006 ft | 253 kts | 84° |
| 2026-05-06 19:12 | 48.49013 | 11.81294 | 5006 ft | 253 kts | 84° |
| 2026-05-06 19:12 | 48.49153 | 11.83942 | 5007 ft | 254 kts | 84° |
| 2026-05-06 19:13 | 48.49288 | 11.86635 | 5004 ft | 254 kts | 84° |
| 2026-05-06 19:13 | 48.49421 | 11.89261 | 5005 ft | 255 kts | 84° |
| 2026-05-06 19:13 | 48.49553 | 11.91915 | 5008 ft | 253 kts | 85° |
| 2026-05-06 19:13 | 48.49691 | 11.94562 | 5004 ft | 253 kts | 85° |
| 2026-05-06 19:14 | 48.49686 | 11.97215 | 5006 ft | 253 kts | 93° |
| 2026-05-06 19:14 | 48.49571 | 11.99864 | 5003 ft | 253 kts | 94° |
| 2026-05-06 19:14 | 48.49436 | 12.02502 | 4861 ft | 252 kts | 94° |
| 2026-05-06 19:14 | 48.49296 | 12.05127 | 4563 ft | 251 kts | 95° |
| 2026-05-06 19:15 | 48.49151 | 12.07745 | 4258 ft | 250 kts | 95° |
| 2026-05-06 19:15 | 48.49008 | 12.10345 | 4033 ft | 246 kts | 95° |
| 2026-05-06 19:15 | 48.48867 | 12.12868 | 4000 ft | 235 kts | 95° |
| 2026-05-06 19:15 | 48.48575 | 12.15217 | 4005 ft | 224 kts | 117° |
| 2026-05-06 19:16 | 48.47596 | 12.16913 | 4005 ft | 209 kts | 157° |
| 2026-05-06 19:16 | 48.46286 | 12.17680 | 4012 ft | 199 kts | 173° |
| 2026-05-06 19:16 | 48.44955 | 12.18227 | 4005 ft | 196 kts | 174° |
| 2026-05-06 19:16 | 48.43639 | 12.18545 | 3995 ft | 185 kts | 196° |
| 2026-05-06 19:17 | 48.42549 | 12.17767 | 4014 ft | 171 kts | 229° |
| 2026-05-06 19:17 | 48.41710 | 12.16531 | 4022 ft | 166 kts | 233° |
| 2026-05-06 19:17 | 48.40925 | 12.15256 | 4016 ft | 166 kts | 234° |
| 2026-05-06 19:17 | 48.40140 | 12.13979 | 4011 ft | 166 kts | 234° |
| 2026-05-06 19:18 | 48.39351 | 12.12681 | 4007 ft | 169 kts | 238° |
| 2026-05-06 19:18 | 48.38867 | 12.11136 | 4005 ft | 162 kts | 261° |
| 2026-05-06 19:18 | 48.38732 | 12.09466 | 4008 ft | 160 kts | 265° |
| 2026-05-06 19:18 | 48.38612 | 12.07813 | 4009 ft | 156 kts | 266° |
| 2026-05-06 19:19 | 48.38495 | 12.06220 | 4026 ft | 152 kts | 265° |
| 2026-05-06 19:19 | 48.38379 | 12.04656 | 4010 ft | 150 kts | 265° |
| 2026-05-06 19:19 | 48.38303 | 12.03622 | 4010 ft | 150 kts | 265° |
| 2026-05-06 19:19 | 48.38148 | 12.01533 | 3960 ft | 150 kts | 266° |
| 2026-05-06 19:20 | 48.38073 | 12.00499 | 3870 ft | 150 kts | 266° |
| 2026-05-06 19:20 | 48.37965 | 11.98987 | 3700 ft | 146 kts | 265° |
| 2026-05-06 19:20 | 48.37846 | 11.97452 | 3525 ft | 148 kts | 265° |
| 2026-05-06 19:20 | 48.37720 | 11.95916 | 3343 ft | 148 kts | 265° |
| 2026-05-06 19:21 | 48.37611 | 11.94376 | 3147 ft | 148 kts | 265° |
| 2026-05-06 19:21 | 48.37498 | 11.92893 | 2943 ft | 134 kts | 265° |
| 2026-05-06 19:21 | 48.37393 | 11.91551 | 2756 ft | 127 kts | 263° |
| 2026-05-06 19:21 | 48.37298 | 11.90255 | 2568 ft | 122 kts | 264° |
| 2026-05-06 19:22 | 48.37206 | 11.88991 | 2375 ft | 125 kts | 264° |
| 2026-05-06 19:22 | 48.37110 | 11.87637 | 2242 ft | 133 kts | 262° |
| 2026-05-06 19:22 | 48.37003 | 11.86248 | 2055 ft | 135 kts | 263° |
| 2026-05-06 19:22 | 48.36890 | 11.84835 | 1875 ft | 137 kts | 262° |
| 2026-05-06 19:23 | 48.36780 | 11.83395 | 1679 ft | 140 kts | 264° |
| 2026-05-06 19:23 | 48.36678 | 11.82004 | 1518 ft | 128 kts | 263° |
| 2026-05-06 19:23 | 48.36587 | 11.80815 | 1485 ft | 93 kts | 263° |
| 2026-05-06 19:23 | 48.36531 | 11.80093 | 1485 ft | 54 kts | 263° |
| 2026-05-06 19:24 | 48.36455 | 11.79712 | 1477 ft | 32 kts | 235° |
| 2026-05-06 19:24 | 48.36338 | 11.79466 | 1477 ft | 21 kts | 233° |
| 2026-05-06 19:24 | 48.36263 | 11.79326 | 1480 ft | 15 kts | 222° |
| 2026-05-06 19:24 | 48.36188 | 11.79298 | 1479 ft | 9 kts | 174° |
| 2026-05-06 19:25 | 48.36131 | 11.79309 | 1472 ft | 8 kts | 173° |
| 2026-05-06 19:25 | 48.36073 | 11.79318 | 1473 ft | 10 kts | 174° |
| 2026-05-06 19:25 | 48.36000 | 11.79329 | 1478 ft | 12 kts | 174° |
| 2026-05-06 19:25 | 48.35914 | 11.79363 | 1477 ft | 13 kts | 148° |
| 2026-05-06 19:26 | 48.35820 | 11.79390 | 1482 ft | 11 kts | 174° |
| 2026-05-06 19:26 | 48.35773 | 11.79398 | 1476 ft | 1 kts | 173° |
| 2026-05-06 19:27 | 48.35727 | 11.79405 | 1485 ft | 11 kts | 174° |
| 2026-05-06 19:27 | 48.35655 | 11.79418 | 1473 ft | 9 kts | 173° |
| 2026-05-06 19:28 | 48.35612 | 11.79429 | 1477 ft | 5 kts | 162° |
| 2026-05-06 19:28 | 48.35557 | 11.79498 | 1473 ft | 13 kts | 151° |
| 2026-05-06 19:28 | 48.35469 | 11.79519 | 1485 ft | 13 kts | 173° |
| 2026-05-06 19:28 | 48.35375 | 11.79535 | 1485 ft | 14 kts | 174° |
| 2026-05-06 19:29 | 48.35287 | 11.79502 | 1481 ft | 14 kts | 235° |
| 2026-05-06 19:29 | 48.35275 | 11.79388 | 1476 ft | 9 kts | 263° |
| 2026-05-06 19:29 | 48.35271 | 11.79344 | 1472 ft | 0 kts | 263° |